Time;durP1;ratioP1;P1;durP2;ratioP2;P2;SDS_P1;SDS_P2;PMS_P1;PMS_P2;Temp;Humidity;BMP_temperature;BMP_pressure;BME280_temperature;BME280_humidity;BME280_pressure;Samples;Min_cycle;Max_cycle;Signal;HPM_P1;HPM_P2
2023/09/13 00:02:19;;;;;;;6.75;1.33;;;18.80;99.90;;;;;;4976478;28;20503;-91
2023/09/13 00:04:45;;;;;;;7.72;1.40;;;19.20;99.90;;;;;;4974289;28;20416;-91
2023/09/13 00:07:10;;;;;;;8.53;1.40;;;18.80;99.90;;;;;;4976406;28;20417;-93
2023/09/13 00:09:40;;;;;;;8.57;1.35;;;18.80;99.90;;;;;;4955932;28;20410;-94
2023/09/13 00:12:07;;;;;;;9.40;1.40;;;18.90;99.90;;;;;;4956013;28;20426;-93
2023/09/13 00:14:33;;;;;;;8.70;1.48;;;18.70;99.90;;;;;;4956373;28;20546;-93
2023/09/13 00:16:59;;;;;;;7.95;1.50;;;18.90;99.90;;;;;;4954911;28;20442;-94
2023/09/13 00:19:27;;;;;;;11.45;1.90;;;18.80;99.90;;;;;;4956441;28;20422;-93
2023/09/13 00:21:52;;;;;;;10.20;1.43;;;18.70;99.90;;;;;;4955039;28;20438;-94
2023/09/13 00:24:18;;;;;;;7.45;1.70;;;19.10;99.90;;;;;;4956557;28;20995;-93
2023/09/13 00:26:43;;;;;;;6.47;1.60;;;19.10;99.90;;;;;;4954432;28;20958;-92
2023/09/13 00:29:09;;;;;;;7.03;1.70;;;19.10;99.90;;;;;;4956659;28;20411;-94
2023/09/13 00:31:35;;;;;;;7.50;1.63;;;19.10;99.90;;;;;;4955999;28;20423;-94
2023/09/13 00:34:01;;;;;;;6.35;1.38;;;18.60;99.90;;;;;;4955502;28;21439;-94
2023/09/13 00:36:27;;;;;;;7.18;1.60;;;19.00;99.90;;;;;;4956491;28;20414;-93
2023/09/13 00:38:52;;;;;;;7.30;1.45;;;19.00;99.90;;;;;;4954589;28;20872;-94
2023/09/13 00:41:20;;;;;;;7.00;1.40;;;18.60;99.90;;;;;;4956269;28;20406;-92
2023/09/13 00:43:46;;;;;;;6.85;1.50;;;18.60;99.90;;;;;;4953959;28;20403;-93
2023/09/13 00:46:12;;;;;;;7.43;1.42;;;18.70;99.90;;;;;;4955880;28;20427;-95
2023/09/13 00:48:38;;;;;;;5.50;1.27;;;18.80;99.90;;;;;;4954139;28;20407;-94
2023/09/13 00:51:04;;;;;;;8.30;1.25;;;18.70;99.90;;;;;;4955363;28;20426;-94
2023/09/13 00:53:32;;;;;;;8.45;1.50;;;18.50;99.90;;;;;;4955359;28;20421;-92
2023/09/13 00:55:58;;;;;;;8.35;1.50;;;18.80;99.90;;;;;;4954077;28;20403;-93
2023/09/13 00:58:26;;;;;;;6.97;1.00;;;18.90;99.90;;;;;;4955814;28;20931;-93
2023/09/13 01:00:53;;;;;;;6.78;0.95;;;18.80;99.90;;;;;;4953726;28;20566;-92
2023/09/13 01:03:21;;;;;;;6.90;1.00;;;18.90;99.90;;;;;;4956015;28;20957;-93
2023/09/13 01:05:49;;;;;;;6.22;0.80;;;18.50;99.90;;;;;;4953957;28;20468;-93
2023/09/13 01:08:15;;;;;;;5.07;0.98;;;18.60;99.90;;;;;;4955587;28;20407;-93
2023/09/13 01:10:41;;;;;;;6.47;1.02;;;18.80;99.90;;;;;;4955533;28;20537;-93
2023/09/13 01:13:07;;;;;;;6.63;1.00;;;18.80;99.90;;;;;;4954607;28;20479;-94
2023/09/13 01:15:40;;;;;;;6.25;0.90;;;18.80;99.90;;;;;;4955938;28;20395;-94
2023/09/13 01:18:18;;;;;;;5.30;0.70;;;18.60;99.90;;;;;;4953999;28;20406;-92
2023/09/13 01:21:22;;;;;;;9.23;0.80;;;18.30;99.90;;;;;;4956811;28;20417;-93
2023/09/13 01:24:22;;;;;;;5.75;0.82;;;18.40;99.90;;;;;;4955279;28;20423;-92
2023/09/13 01:27:16;;;;;;;6.90;0.93;;;18.40;99.90;;;;;;4969869;28;20410;-93
2023/09/13 01:29:44;;;;;;;6.25;0.93;;;18.40;99.90;;;;;;4955902;28;20481;-94
2023/09/13 01:32:10;;;;;;;5.53;0.85;;;18.70;99.90;;;;;;4954902;28;20410;-93
2023/09/13 01:34:35;;;;;;;4.50;1.00;;;18.40;99.90;;;;;;4954418;28;20419;-93
2023/09/13 01:37:01;;;;;;;7.23;0.60;;;18.30;99.90;;;;;;4955787;28;20405;-94
2023/09/13 01:39:27;;;;;;;5.55;0.70;;;18.70;99.90;;;;;;4953724;28;20410;-94
2023/09/13 01:41:57;;;;;;;4.97;0.70;;;18.80;99.90;;;;;;4955856;28;20525;-94
2023/09/13 01:44:23;;;;;;;5.70;0.80;;;18.60;99.90;;;;;;4953641;28;20457;-93
2023/09/13 01:46:52;;;;;;;4.40;0.60;;;18.30;99.90;;;;;;4955063;28;20464;-94
2023/09/13 01:49:20;;;;;;;5.53;0.70;;;18.60;99.90;;;;;;4953718;28;20411;-94
2023/09/13 01:51:46;;;;;;;5.07;0.70;;;18.30;99.90;;;;;;4954580;28;20414;-92
2023/09/13 01:54:12;;;;;;;6.90;1.33;;;18.20;99.90;;;;;;4955312;28;20411;-95
2023/09/13 01:56:38;;;;;;;5.13;0.70;;;18.20;99.90;;;;;;4953774;28;20505;-94
2023/09/13 01:59:04;;;;;;;6.38;0.75;;;18.60;99.90;;;;;;4955687;28;20422;-94
2023/09/13 02:01:30;;;;;;;5.10;0.70;;;18.10;99.90;;;;;;4953372;28;20446;-94
2023/09/13 02:03:55;;;;;;;5.50;0.97;;;18.20;99.90;;;;;;4955492;28;20419;-94
2023/09/13 02:06:21;;;;;;;4.32;0.70;;;18.20;99.90;;;;;;4953692;28;20598;-94
2023/09/13 02:08:46;;;;;;;5.50;1.00;;;18.20;99.90;;;;;;4955421;28;20917;-93
2023/09/13 02:11:12;;;;;;;6.13;0.90;;;18.20;99.90;;;;;;4954708;28;20410;-93
2023/09/13 02:13:38;;;;;;;4.22;0.80;;;18.40;99.90;;;;;;4954141;28;20418;-93
2023/09/13 02:16:04;;;;;;;5.60;1.03;;;18.10;99.90;;;;;;4954701;28;20864;-96
2023/09/13 02:18:29;;;;;;;7.70;1.30;;;18.10;99.90;;;;;;4953310;28;20421;-93
2023/09/13 02:20:55;;;;;;;6.20;1.17;;;18.10;99.90;;;;;;4955389;28;20939;-94
2023/09/13 02:23:20;;;;;;;7.65;1.40;;;18.30;99.90;;;;;;4954486;28;20829;-93
2023/09/13 02:25:46;;;;;;;6.40;1.47;;;18.10;99.90;;;;;;4955353;28;20418;-91
2023/09/13 02:28:13;;;;;;;5.82;1.90;;;18.10;99.90;;;;;;4953579;28;20480;-93
2023/09/13 02:30:39;;;;;;;6.32;1.80;;;18.40;99.90;;;;;;4954606;28;20414;-94
2023/09/13 02:33:05;;;;;;;7.07;1.60;;;18.40;99.90;;;;;;4954268;28;20426;-92
2023/09/13 02:35:32;;;;;;;7.43;1.80;;;18.40;99.90;;;;;;4954093;28;20414;-94
2023/09/13 02:37:58;;;;;;;6.45;1.58;;;18.10;99.90;;;;;;4955278;28;20446;-92
2023/09/13 02:40:24;;;;;;;7.10;1.50;;;18.00;99.90;;;;;;4953546;28;20407;-94
2023/09/13 02:42:50;;;;;;;5.90;1.53;;;18.50;99.90;;;;;;4955106;28;20439;-94
2023/09/13 02:45:16;;;;;;;5.60;1.13;;;18.20;99.90;;;;;;4953851;28;20476;-93
2023/09/13 02:47:43;;;;;;;6.60;1.23;;;18.00;99.90;;;;;;4958493;28;20419;-92
2023/09/13 02:50:09;;;;;;;6.13;1.30;;;18.40;99.90;;;;;;4957208;28;20496;-92
2023/09/13 02:52:35;;;;;;;4.50;1.17;;;18.00;99.90;;;;;;4958084;28;20441;-95
2023/09/13 02:55:05;;;;;;;7.20;1.20;;;18.00;99.90;;;;;;4958023;28;20902;-93
2023/09/13 02:57:31;;;;;;;7.60;1.10;;;18.30;99.90;;;;;;4956285;28;21104;-93
2023/09/13 02:59:57;;;;;;;5.38;1.05;;;17.90;99.90;;;;;;4958465;28;20493;-94
2023/09/13 03:02:23;;;;;;;6.28;0.88;;;17.90;99.90;;;;;;4955775;28;20434;-93
2023/09/13 03:04:53;;;;;;;6.37;1.27;;;18.40;99.90;;;;;;4958151;28;20436;-92
2023/09/13 03:07:19;;;;;;;4.72;0.80;;;18.00;99.90;;;;;;4956573;28;20431;-93
2023/09/13 03:09:45;;;;;;;4.97;0.70;;;18.30;99.90;;;;;;4957698;28;20406;-95
2023/09/13 03:12:12;;;;;;;6.85;0.80;;;18.10;99.90;;;;;;4957010;28;20426;-94
2023/09/13 03:14:38;;;;;;;5.47;0.82;;;18.60;99.90;;;;;;4956385;28;20522;-95
2023/09/13 03:17:04;;;;;;;5.67;1.00;;;17.90;99.90;;;;;;4957777;28;20500;-94
2023/09/13 03:19:30;;;;;;;4.75;0.75;;;18.20;99.90;;;;;;4955338;28;21299;-94
2023/09/13 03:21:57;;;;;;;7.27;1.20;;;17.90;99.90;;;;;;4957726;28;20925;-94
2023/09/13 03:24:22;;;;;;;10.27;1.50;;;17.90;99.90;;;;;;4955963;28;20417;-91
2023/09/13 03:26:48;;;;;;;10.93;1.57;;;17.90;99.90;;;;;;4957463;28;20411;-91
2023/09/13 03:29:15;;;;;;;7.05;1.60;;;18.10;99.90;;;;;;4957025;28;20621;-92
2023/09/13 03:31:41;;;;;;;8.10;2.47;;;18.20;99.90;;;;;;4956763;28;20428;-91
2023/09/13 03:34:07;;;;;;;9.30;2.85;;;18.00;99.90;;;;;;4973485;28;20426;-91
2023/09/13 03:36:33;;;;;;;13.23;3.23;;;17.60;99.90;;;;;;4956043;28;20434;-90
2023/09/13 03:38:58;;;;;;;12.10;3.40;;;17.20;99.90;;;;;;4957551;28;20469;-92
2023/09/13 03:41:26;;;;;;;8.10;3.17;;;17.20;99.90;;;;;;4955969;28;20419;-93
2023/09/13 03:43:52;;;;;;;10.93;2.90;;;17.30;99.90;;;;;;4957414;28;20429;-92
2023/09/13 03:46:18;;;;;;;10.68;2.40;;;16.80;99.90;;;;;;4955934;28;20474;-90
2023/09/13 03:48:43;;;;;;;10.35;2.92;;;16.70;99.90;;;;;;4956776;28;20414;-92
2023/09/13 03:51:09;;;;;;;8.97;2.80;;;16.70;99.90;;;;;;4956934;28;20488;-92
2023/09/13 03:53:35;;;;;;;9.95;2.70;;;16.40;99.90;;;;;;4956357;28;20905;-93
2023/09/13 03:56:02;;;;;;;13.63;3.40;;;16.10;99.90;;;;;;4957257;28;20442;-92
2023/09/13 03:58:28;;;;;;;13.40;3.17;;;16.40;99.90;;;;;;4955312;28;20453;-93
2023/09/13 04:00:55;;;;;;;14.52;3.88;;;16.40;99.90;;;;;;4964570;28;20496;-92
2023/09/13 04:03:21;;;;;;;14.02;4.35;;;16.30;99.90;;;;;;4967903;28;20489;-90
2023/09/13 04:05:47;;;;;;;13.70;3.53;;;16.20;99.90;;;;;;4956282;28;20465;-90
2023/09/13 04:08:13;;;;;;;13.85;4.07;;;16.10;99.90;;;;;;4973060;28;20415;-91
2023/09/13 04:10:39;;;;;;;9.57;3.53;;;16.50;99.90;;;;;;4958347;28;20418;-93
2023/09/13 04:13:05;;;;;;;15.07;3.63;;;16.20;99.90;;;;;;4956887;28;20410;-91
2023/09/13 04:15:31;;;;;;;15.32;4.07;;;15.90;99.90;;;;;;4954769;28;20411;-94
2023/09/13 04:17:57;;;;;;;12.35;3.30;;;15.80;99.90;;;;;;4956861;28;20410;-92
2023/09/13 04:20:23;;;;;;;14.13;3.28;;;15.90;99.90;;;;;;4954950;28;20429;-92
2023/09/13 04:22:49;;;;;;;14.68;3.25;;;15.60;99.90;;;;;;4956513;28;20470;-92
2023/09/13 04:25:15;;;;;;;12.93;2.77;;;15.80;99.90;;;;;;4955677;28;20418;-92
2023/09/13 04:27:45;;;;;;;15.07;3.60;;;15.20;99.90;;;;;;4956270;28;20414;-92
2023/09/13 04:30:12;;;;;;;17.90;4.80;;;15.50;99.90;;;;;;4955901;28;20790;-91
2023/09/13 04:32:38;;;;;;;16.88;4.20;;;15.40;99.90;;;;;;4955062;28;20410;-92
2023/09/13 04:35:04;;;;;;;15.07;3.80;;;15.80;99.90;;;;;;4956459;28;20411;-91
2023/09/13 04:37:30;;;;;;;16.30;4.40;;;15.40;99.90;;;;;;4955083;28;20413;-93
2023/09/13 04:39:57;;;;;;;13.95;4.00;;;15.30;99.90;;;;;;4956379;28;20497;-92
2023/09/13 04:42:22;;;;;;;16.52;5.03;;;15.50;99.90;;;;;;4954435;28;20524;-90
2023/09/13 04:44:48;;;;;;;13.20;4.57;;;15.70;99.90;;;;;;4972047;28;20999;-91
2023/09/13 04:47:14;;;;;;;13.77;4.07;;;15.30;99.90;;;;;;4955673;28;20936;-92
2023/09/13 04:49:39;;;;;;;18.17;4.35;;;15.40;99.90;;;;;;4954938;28;20497;-92
2023/09/13 04:52:07;;;;;;;16.33;4.53;;;15.70;99.90;;;;;;4968857;28;20443;-90
2023/09/13 04:54:34;;;;;;;13.50;3.97;;;15.30;99.90;;;;;;4973318;28;20456;-89
2023/09/13 04:57:00;;;;;;;16.23;4.15;;;15.20;99.90;;;;;;4974440;28;20412;-92
2023/09/13 04:59:44;;;;;;;16.35;4.60;;;15.20;99.90;;;;;;4973345;28;20479;-90
2023/09/13 05:02:13;;;;;;;17.57;5.30;;;15.20;99.90;;;;;;4974428;28;20433;-91
2023/09/13 05:04:39;;;;;;;16.80;4.40;;;15.10;99.90;;;;;;4974102;28;20496;-90
2023/09/13 05:07:05;;;;;;;17.52;4.55;;;15.20;99.90;;;;;;4974000;28;20416;-91
2023/09/13 05:09:31;;;;;;;20.33;5.55;;;15.20;99.90;;;;;;4974008;28;20764;-92
2023/09/13 05:11:57;;;;;;;23.83;5.47;;;15.20;99.90;;;;;;4971649;28;20902;-88
2023/09/13 05:14:23;;;;;;;20.57;4.10;;;15.20;99.90;;;;;;4972486;28;20400;-89
2023/09/13 05:16:49;;;;;;;12.52;3.25;;;15.20;99.90;;;;;;4972266;28;20412;-92
2023/09/13 05:19:14;;;;;;;14.63;3.30;;;15.00;99.90;;;;;;4974596;28;20903;-90
2023/09/13 05:21:40;;;;;;;17.03;3.63;;;15.00;99.90;;;;;;4973607;28;20440;-90
2023/09/13 05:24:06;;;;;;;17.05;3.15;;;15.40;99.90;;;;;;4974482;28;20428;-92
2023/09/13 05:26:31;;;;;;;13.85;3.47;;;14.80;99.90;;;;;;4974041;28;20478;-89
2023/09/13 05:28:57;;;;;;;12.47;2.77;;;14.90;99.90;;;;;;4972220;28;20413;-89
2023/09/13 05:31:23;;;;;;;14.65;3.08;;;15.30;99.90;;;;;;4974007;28;20401;-90
2023/09/13 05:33:48;;;;;;;16.43;3.90;;;14.70;99.90;;;;;;4972424;28;20932;-90
2023/09/13 05:36:15;;;;;;;14.43;3.30;;;14.60;99.90;;;;;;4973818;28;20401;-90
2023/09/13 05:38:41;;;;;;;13.17;4.00;;;14.40;99.90;;;;;;4973272;28;20487;-91
2023/09/13 05:41:08;;;;;;;18.10;4.80;;;14.60;99.90;;;;;;4974619;28;20479;-91
2023/09/13 05:43:38;;;;;;;17.17;4.85;;;14.80;99.90;;;;;;4974416;28;20429;-90
2023/09/13 05:46:04;;;;;;;20.13;5.40;;;14.70;99.90;;;;;;4973275;28;20412;-92
2023/09/13 05:48:30;;;;;;;23.52;5.97;;;14.70;99.90;;;;;;4974313;28;20420;-89
2023/09/13 05:50:56;;;;;;;17.20;5.60;;;14.70;99.90;;;;;;4972968;28;20412;-92
2023/09/13 05:53:22;;;;;;;17.83;5.63;;;14.40;99.90;;;;;;4971656;28;20444;-93
2023/09/13 05:55:48;;;;;;;19.40;5.60;;;14.30;99.90;;;;;;4972325;28;20416;-92
2023/09/13 05:58:14;;;;;;;19.30;5.55;;;14.70;99.90;;;;;;4974427;28;20408;-92
2023/09/13 06:00:46;;;;;;;23.10;6.63;;;14.30;99.90;;;;;;4973699;28;20776;-94
2023/09/13 06:03:12;;;;;;;15.45;6.05;;;14.70;99.90;;;;;;4973875;28;20507;-92
2023/09/13 06:05:37;;;;;;;18.80;5.77;;;14.80;99.90;;;;;;4974949;28;20405;-93
2023/09/13 06:08:04;;;;;;;25.57;7.27;;;14.60;99.90;;;;;;4973196;28;20405;-90
2023/09/13 06:10:30;;;;;;;17.23;4.78;;;14.50;99.90;;;;;;4974494;28;20456;-93
2023/09/13 06:12:56;;;;;;;14.95;4.03;;;14.40;99.90;;;;;;4972584;28;20409;-94
2023/09/13 06:15:21;;;;;;;15.40;4.87;;;14.80;99.90;;;;;;4973905;28;20432;-91
2023/09/13 06:17:47;;;;;;;14.30;4.10;;;14.60;99.90;;;;;;4972813;28;20491;-93
2023/09/13 06:20:13;;;;;;;16.35;4.72;;;14.60;99.90;;;;;;4974937;28;20408;-91
2023/09/13 06:22:39;;;;;;;17.53;4.73;;;14.70;99.90;;;;;;4977209;28;20919;-93
2023/09/13 06:25:05;;;;;;;13.90;3.85;;;14.50;99.90;;;;;;4975811;28;20412;-92
2023/09/13 06:27:31;;;;;;;16.55;4.55;;;14.60;99.90;;;;;;4977962;28;20452;-91
2023/09/13 06:29:56;;;;;;;16.13;3.80;;;15.00;99.90;;;;;;4975631;28;20447;-92
2023/09/13 06:32:23;;;;;;;14.47;4.30;;;15.40;99.90;;;;;;4978030;28;20681;-91
2023/09/13 06:34:49;;;;;;;14.52;3.35;;;15.30;99.90;;;;;;4975511;28;20962;-92
2023/09/13 06:37:18;;;;;;;14.45;3.20;;;14.60;99.90;;;;;;4977253;28;20400;-90
2023/09/13 06:39:44;;;;;;;16.08;3.30;;;14.80;99.90;;;;;;4976428;28;20507;-92
2023/09/13 06:42:10;;;;;;;13.25;3.38;;;14.70;99.90;;;;;;4976276;28;20999;-90
2023/09/13 06:44:36;;;;;;;16.75;3.53;;;14.90;99.90;;;;;;4977013;28;20409;-91
2023/09/13 06:47:02;;;;;;;16.80;2.93;;;14.80;99.90;;;;;;4975468;28;20420;-90
2023/09/13 06:49:28;;;;;;;12.88;2.80;;;14.80;99.90;;;;;;4977054;28;20405;-90
2023/09/13 06:51:53;;;;;;;11.07;2.73;;;14.80;99.90;;;;;;4990684;28;20419;-90
2023/09/13 06:54:19;;;;;;;9.82;2.15;;;14.90;99.90;;;;;;4976252;28;20405;-89
2023/09/13 06:56:45;;;;;;;10.20;2.13;;;14.90;99.90;;;;;;4975236;28;20456;-90
2023/09/13 06:59:11;;;;;;;10.52;1.95;;;14.90;99.90;;;;;;4976525;28;20567;-90
2023/09/13 07:01:38;;;;;;;10.48;2.10;;;15.00;99.90;;;;;;4965657;28;20417;-92
2023/09/13 07:04:04;;;;;;;9.10;1.70;;;14.90;99.90;;;;;;4965330;28;20477;-89
2023/09/13 07:06:30;;;;;;;10.48;1.92;;;15.00;99.90;;;;;;4977413;28;20551;-92
2023/09/13 07:08:56;;;;;;;9.68;1.58;;;15.20;99.90;;;;;;4975301;28;20496;-93
2023/09/13 07:11:23;;;;;;;12.17;1.50;;;15.40;99.90;;;;;;4977539;28;20891;-92
2023/09/13 07:13:49;;;;;;;9.85;1.42;;;15.30;99.90;;;;;;4974720;28;20428;-92
2023/09/13 07:16:14;;;;;;;8.35;1.42;;;15.30;99.90;;;;;;4976674;28;20822;-91
2023/09/13 07:18:40;;;;;;;6.57;1.05;;;15.00;99.90;;;;;;4976194;28;21012;-91
2023/09/13 07:21:06;;;;;;;10.60;1.50;;;15.00;99.90;;;;;;4976533;28;20966;-93
2023/09/13 07:23:32;;;;;;;8.13;1.30;;;15.00;99.90;;;;;;4976410;28;20923;-92
2023/09/13 07:25:59;;;;;;;9.27;1.20;;;15.30;99.90;;;;;;4975500;28;20408;-94
2023/09/13 07:28:25;;;;;;;8.60;1.55;;;15.00;99.90;;;;;;4978765;28;20415;-93
2023/09/13 07:30:51;;;;;;;8.63;1.50;;;15.30;99.90;;;;;;4974093;28;20405;-89
2023/09/13 07:33:16;;;;;;;8.90;1.75;;;15.30;99.90;;;;;;4976508;28;20405;-90
2023/09/13 07:35:42;;;;;;;10.07;1.90;;;15.00;99.90;;;;;;4963765;28;20780;-90
2023/09/13 07:38:10;;;;;;;6.87;1.83;;;15.10;99.90;;;;;;4991831;28;20447;-91
2023/09/13 07:40:38;;;;;;;10.98;2.20;;;15.20;99.90;;;;;;4975128;28;20499;-90
2023/09/13 07:43:08;;;;;;;11.00;2.00;;;15.40;99.90;;;;;;4975534;28;20432;-90
2023/09/13 07:45:34;;;;;;;9.82;2.10;;;15.30;99.90;;;;;;4991941;28;20389;-90
2023/09/13 07:48:02;;;;;;;9.63;1.85;;;15.50;99.90;;;;;;4974326;28;20401;-93
2023/09/13 07:50:40;;;;;;;10.80;2.30;;;15.40;99.90;;;;;;4976413;28;20419;-91
2023/09/13 07:53:12;;;;;;;9.38;2.25;;;15.50;99.90;;;;;;4974776;28;20894;-92
2023/09/13 07:55:39;;;;;;;12.30;2.67;;;15.70;99.90;;;;;;4975608;28;20454;-92
2023/09/13 07:58:05;;;;;;;8.80;1.88;;;15.70;99.90;;;;;;4975767;28;20420;-93
2023/09/13 08:00:31;;;;;;;11.45;2.20;;;15.80;99.90;;;;;;4974555;28;20409;-91
2023/09/13 08:03:01;;;;;;;12.90;2.25;;;15.90;99.90;;;;;;4976160;28;20437;-93
2023/09/13 08:05:27;;;;;;;10.10;2.03;;;16.50;99.90;;;;;;4973501;28;20424;-92
2023/09/13 08:07:53;;;;;;;10.50;2.05;;;16.20;99.90;;;;;;4992036;28;20405;-92
2023/09/13 08:10:21;;;;;;;8.67;1.37;;;16.60;99.90;;;;;;4974194;28;20409;-94
2023/09/13 08:12:48;;;;;;;8.48;1.70;;;16.70;99.90;;;;;;4975785;28;21301;-93
2023/09/13 08:15:13;;;;;;;8.83;2.07;;;16.80;99.90;;;;;;4975878;28;20945;-92
2023/09/13 08:17:39;;;;;;;10.50;1.80;;;17.00;99.90;;;;;;4975457;28;20408;-94
2023/09/13 08:20:08;;;;;;;7.90;1.27;;;17.00;99.90;;;;;;4975095;28;20484;-94
2023/09/13 08:22:43;;;;;;;7.45;1.27;;;17.30;99.90;;;;;;4970142;28;20436;-95
2023/09/13 08:25:09;;;;;;;9.80;1.60;;;17.60;99.90;;;;;;4991180;28;20416;-92
2023/09/13 08:27:34;;;;;;;9.50;2.00;;;17.40;99.90;;;;;;4969499;28;20411;-93
2023/09/13 08:30:00;;;;;;;10.40;1.60;;;17.60;99.90;;;;;;4954755;28;20898;-95
2023/09/13 08:32:26;;;;;;;10.95;2.10;;;17.20;99.90;;;;;;4954199;28;20917;-93
2023/09/13 08:34:51;;;;;;;15.43;2.97;;;17.20;99.90;;;;;;4955324;28;20426;-92
2023/09/13 08:37:17;;;;;;;8.67;2.13;;;17.20;99.90;;;;;;4955238;28;20406;-93
2023/09/13 08:39:43;;;;;;;11.32;2.42;;;17.10;99.90;;;;;;4954511;28;20419;-93
2023/09/13 08:42:13;;;;;;;11.37;2.43;;;16.90;99.90;;;;;;4955881;28;20464;-93
2023/09/13 08:44:49;;;;;;;9.20;2.30;;;16.90;99.90;;;;;;4954133;28;20407;-94
2023/09/13 08:47:16;;;;;;;10.02;2.30;;;17.10;99.90;;;;;;4955860;28;20488;-94
2023/09/13 08:49:44;;;;;;;10.63;2.70;;;17.00;99.90;;;;;;4953770;28;20423;-92
2023/09/13 08:52:13;;;;;;;12.35;2.38;;;16.70;99.90;;;;;;4955716;28;20413;-93
2023/09/13 08:54:41;;;;;;;9.70;2.35;;;16.70;99.90;;;;;;4963278;28;20397;-94
2023/09/13 08:57:09;;;;;;;10.02;2.60;;;16.90;99.90;;;;;;4974106;28;20405;-96
2023/09/13 08:59:35;;;;;;;11.05;2.15;;;16.50;99.90;;;;;;4975588;28;20401;-94
2023/09/13 09:02:02;;;;;;;10.48;2.72;;;16.80;99.90;;;;;;4972335;28;20439;-93
2023/09/13 09:04:28;;;;;;;10.48;2.60;;;16.80;99.90;;;;;;4974943;28;20779;-91
2023/09/13 09:06:57;;;;;;;11.90;2.88;;;16.70;99.90;;;;;;4957079;28;20405;-95
2023/09/13 09:09:28;;;;;;;9.82;3.03;;;16.60;99.90;;;;;;4975568;28;20417;-93
2023/09/13 09:12:06;;;;;;;8.70;2.60;;;17.00;99.90;;;;;;4974252;28;20407;-93
2023/09/13 09:14:33;;;;;;;10.25;2.90;;;16.40;99.90;;;;;;4971597;28;20830;-94
2023/09/13 09:17:00;;;;;;;7.47;2.63;;;16.80;99.90;;;;;;4974741;28;20412;-94
2023/09/13 09:19:28;;;;;;;8.60;2.58;;;16.40;99.90;;;;;;4974927;28;20427;-93
2023/09/13 09:21:54;;;;;;;8.82;3.00;;;16.30;99.90;;;;;;4975302;28;20485;-93
2023/09/13 09:24:20;;;;;;;6.57;2.70;;;16.30;99.90;;;;;;4972786;28;20440;-93
2023/09/13 09:26:46;;;;;;;9.32;3.10;;;16.30;99.90;;;;;;4975358;28;20409;-94
2023/09/13 09:29:32;;;;;;;7.80;2.80;;;15.80;99.90;;;;;;4973073;28;20420;-93
2023/09/13 09:31:59;;;;;;;8.55;2.35;;;15.70;99.90;;;;;;4974110;28;20413;-91
2023/09/13 09:34:30;;;;;;;8.00;2.67;;;15.80;99.90;;;;;;4974353;28;20448;-91
2023/09/13 09:37:09;;;;;;;8.02;2.72;;;15.30;99.90;;;;;;4988945;28;20405;-94
2023/09/13 09:39:40;;;;;;;7.45;2.47;;;15.60;99.90;;;;;;4974568;28;20404;-92
2023/09/13 09:42:06;;;;;;;7.03;2.60;;;15.90;99.90;;;;;;4972300;28;20796;-90
2023/09/13 09:44:32;;;;;;;7.50;1.85;;;15.80;99.90;;;;;;4973903;28;20416;-92
2023/09/13 09:46:58;;;;;;;8.80;2.63;;;15.90;99.90;;;;;;4973385;28;20416;-93
2023/09/13 09:49:25;;;;;;;7.47;2.13;;;16.40;99.90;;;;;;4973945;28;20423;-92
2023/09/13 09:51:51;;;;;;;6.82;2.00;;;16.70;99.90;;;;;;4974511;28;20404;-93
2023/09/13 09:54:17;;;;;;;5.00;1.50;;;16.60;99.90;;;;;;4969323;28;20536;-94
2023/09/13 09:56:43;;;;;;;5.07;1.80;;;17.30;99.90;;;;;;4975502;28;20422;-92
2023/09/13 09:59:09;;;;;;;5.20;1.60;;;17.10;99.90;;;;;;4972704;28;20913;-89
2023/09/13 10:01:38;;;;;;;5.05;1.73;;;17.20;99.90;;;;;;4974973;28;20505;-91
2023/09/13 10:04:11;;;;;;;8.25;2.15;;;17.90;99.90;;;;;;4972635;28;20852;-91
2023/09/13 10:06:37;;;;;;;4.88;1.98;;;18.20;99.90;;;;;;4974773;28;20513;-94
2023/09/13 10:09:05;;;;;;;6.83;2.10;;;19.00;99.90;;;;;;4975166;28;20441;-94
2023/09/13 10:11:34;;;;;;;5.97;2.13;;;19.60;99.90;;;;;;4974993;28;20539;-96
2023/09/13 10:14:03;;;;;;;4.38;2.30;;;20.90;99.90;;;;;;4983690;28;20433;-94
2023/09/13 10:16:32;;;;;;;4.75;2.03;;;20.70;99.90;;;;;;4978743;28;20414;-95
2023/09/13 10:19:16;;;;;;;4.57;2.33;;;21.40;99.90;;;;;;4980108;28;20410;-95
2023/09/13 10:22:12;;;;;;;6.22;2.05;;;21.70;99.90;;;;;;4979177;28;20456;-96
2023/09/13 10:25:05;;;;;;;5.75;2.03;;;22.20;99.90;;;;;;4976827;28;20434;-95
2023/09/13 10:38:57;;;;;;;5.68;1.60;;;23.20;74.40;;;;;;4895066;29;20467;-95
2023/09/13 10:42:15;;;;;;;3.03;1.67;;;23.20;66.50;;;;;;5129657;23;20420;-96
2023/09/13 10:44:47;;;;;;;4.50;1.85;;;23.30;59.30;;;;;;4996850;28;20421;-95
2023/09/13 10:48:20;;;;;;;4.38;1.77;;;23.50;60.70;;;;;;5000420;28;20477;-95
2023/09/13 10:50:38;;;;;;;4.50;2.17;;;23.40;64.00;;;;;;5004856;28;20432;-95
2023/09/13 10:53:10;;;;;;;4.60;2.07;;;23.60;68.70;;;;;;4989935;28;20385;-95
2023/09/13 10:55:46;;;;;;;4.93;2.10;;;23.60;67.40;;;;;;4991652;28;20443;-95
2023/09/13 10:58:31;;;;;;;5.22;2.08;;;23.90;64.40;;;;;;4992011;28;20492;-95
2023/09/13 11:01:29;;;;;;;4.97;2.05;;;24.30;68.20;;;;;;4991941;28;20984;-95
2023/09/13 11:03:55;;;;;;;4.50;2.00;;;24.50;59.20;;;;;;4980492;28;20421;-95
2023/09/13 11:12:16;;;;;;;4.55;1.98;;;24.90;57.30;;;;;;5033866;23;20441;-95
2023/09/13 11:15:45;;;;;;;3.43;1.50;;;25.10;55.70;;;;;;5014424;28;20393;-95
2023/09/13 11:18:50;;;;;;;3.95;1.55;;;25.30;56.10;;;;;;4997651;28;20427;-95
2023/09/13 11:24:46;;;;;;;;;;;;;;;;;;;;;
2023/09/13 11:43:26;;;;;;;4.18;0.95;;;24.50;55.90;;;;;;4991889;28;20444;-95
2023/09/13 11:49:14;;;;;;;5.40;0.93;;;24.40;54.70;;;;;;5203807;23;20434;-95
2023/09/13 11:55:29;;;;;;;4.68;0.93;;;23.30;57.70;;;;;;4969121;28;20428;-94
2023/09/13 12:25:32;;;;;;;4.85;0.50;;;21.20;91.40;;;;;;6008015;23;21225;31
2023/09/13 13:20:16;;;;;;;4.93;0.80;;;21.40;70.50;;;;;;5150119;23;20619;-95
2023/09/13 13:26:36;;;;;;;4.57;0.60;;;20.30;92.90;;;;;;4901257;29;20501;-95
2023/09/13 13:29:10;;;;;;;7.00;1.00;;;20.00;98.50;;;;;;5125025;23;20447;-94
2023/09/13 13:32:05;;;;;;;5.70;0.80;;;19.80;98.70;;;;;;4931338;23;20477;-94
2023/09/13 13:34:33;;;;;;;6.28;0.80;;;19.70;99.80;;;;;;4862602;29;20425;-95
2023/09/13 13:37:05;;;;;;;7.18;0.77;;;19.90;99.90;;;;;;4866658;29;20522;-93
2023/09/13 13:39:40;;;;;;;5.32;0.90;;;20.00;99.90;;;;;;4873889;29;20494;-94
2023/09/13 13:42:26;;;;;;;7.68;1.02;;;19.90;99.90;;;;;;4854528;29;20942;-95
2023/09/13 13:44:52;;;;;;;6.80;0.83;;;20.00;99.90;;;;;;4866741;29;20877;-94
2023/09/13 13:48:07;;;;;;;6.53;1.00;;;20.30;99.90;;;;;;4867508;29;20423;-95
2023/09/13 13:50:42;;;;;;;6.03;0.80;;;20.10;99.90;;;;;;4867915;29;20419;-95
2023/09/13 13:53:21;;;;;;;8.47;1.60;;;20.10;96.30;;;;;;4869279;29;20441;-95
2023/09/13 13:56:26;;;;;;;6.97;1.08;;;20.10;93.90;;;;;;4874070;29;20512;-95
2023/09/13 13:59:53;;;;;;;;;;;;;;;;;;;;;
2023/09/13 14:01:58;;;;;;;8.38;0.80;;;19.90;97.40;;;;;;4876543;29;20430;-94
2023/09/13 14:04:56;;;;;;;;;;;;;;;;;;;;;
2023/09/13 14:07:34;;;;;;;6.50;1.17;;;19.80;93.20;;;;;;4870375;29;20521;-95
2023/09/13 14:10:01;;;;;;;7.68;1.00;;;20.10;98.20;;;;;;4866134;29;20508;-95
2023/09/13 14:12:58;;;;;;;6.10;0.80;;;19.90;99.90;;;;;;4867316;29;20439;-95
2023/09/13 14:16:01;;;;;;;7.20;1.00;;;19.70;90.60;;;;;;4891148;29;20438;-95
2023/09/13 14:18:57;;;;;;;7.27;0.90;;;19.90;97.80;;;;;;4874414;29;20426;-93
2023/09/13 14:21:54;;;;;;;8.07;0.90;;;19.90;95.70;;;;;;4839671;29;20439;-93
2023/09/13 14:25:25;;;;;;;;;;;;;;;;;;;;;
2023/09/13 14:28:18;;;;;;;10.25;1.20;;;20.00;99.90;;;;;;4812798;29;20438;-94
2023/09/13 14:30:58;;;;;;;6.65;0.80;;;20.20;93.60;;;;;;4795233;29;20431;-93
2023/09/13 14:34:52;;;;;;;;;;;;;;;;;;;;;
2023/09/13 14:37:35;;;;;;;5.75;0.90;;;20.00;90.40;;;;;;4855837;29;20476;-95
2023/09/13 14:48:25;;;;;;;7.97;1.10;;;20.00;99.90;;;;;;4799314;29;20478;-96
2023/09/13 14:51:38;;;;;;;7.07;0.98;;;20.00;99.90;;;;;;4809262;29;20435;-95
2023/09/13 14:54:30;;;;;;;7.43;0.87;;;20.10;97.00;;;;;;4820427;29;20862;-95
2023/09/13 14:57:43;;;;;;;6.87;0.80;;;20.20;90.00;;;;;;4807043;29;20524;-95
2023/09/13 15:00:17;;;;;;;8.93;1.20;;;20.20;91.40;;;;;;4802525;29;20485;-95
2023/09/13 15:03:02;;;;;;;;;;;;;;;;;;;;;
2023/09/13 15:06:31;;;;;;;;;;;;;;;;;;;;;
2023/09/13 15:09:07;;;;;;;4.88;0.90;;;20.80;81.50;;;;;;4854494;29;20462;-94
2023/09/13 15:12:03;;;;;;;5.43;0.90;;;20.90;70.40;;;;;;4841865;29;20530;-96
2023/09/13 15:14:34;;;;;;;5.90;0.98;;;20.70;66.20;;;;;;4834600;29;20414;-95
2023/09/13 15:17:01;;;;;;;6.43;1.03;;;20.60;64.80;;;;;;4838539;29;20410;-95
2023/09/13 15:19:49;;;;;;;6.70;0.93;;;20.50;65.50;;;;;;4834409;29;20505;-93
2023/09/13 15:22:15;;;;;;;5.20;0.82;;;19.60;76.90;;;;;;4830590;29;20442;-94
2023/09/13 15:24:42;;;;;;;7.73;0.90;;;19.50;78.80;;;;;;4832795;29;20418;-94
2023/09/13 15:27:09;;;;;;;6.83;1.10;;;19.60;67.80;;;;;;4830550;29;20441;-95